Time;durP1;ratioP1;P1;durP2;ratioP2;P2;SDS_P1;SDS_P2;PMS_P1;PMS_P2;Temp;Humidity;BMP_temperature;BMP_pressure;BME280_temperature;BME280_humidity;BME280_pressure;Samples;Min_cycle;Max_cycle;Signal;HPM_P1;HPM_P2
2023/03/13 00:02:14;;;;;;;20.60;10.23;;;5.40;99.90;;;;;;5162907;28;20263;-54
2023/03/13 00:04:45;;;;;;;18.97;9.50;;;5.40;99.90;;;;;;5158498;28;20562;-53
2023/03/13 00:07:16;;;;;;;24.20;10.40;;;5.40;99.90;;;;;;5161375;28;20181;-54
2023/03/13 00:09:46;;;;;;;16.57;9.77;;;5.40;99.90;;;;;;5159518;28;20261;-55
2023/03/13 00:12:17;;;;;;;16.93;10.27;;;5.50;99.90;;;;;;5163946;28;20299;-54
2023/03/13 00:14:48;;;;;;;20.83;10.20;;;5.40;99.90;;;;;;5159898;28;20185;-53
2023/03/13 00:17:19;;;;;;;24.57;11.10;;;5.50;99.90;;;;;;5160500;28;20462;-54
2023/03/13 00:19:51;;;;;;;25.60;9.80;;;5.50;99.90;;;;;;5165971;28;20192;-51
2023/03/13 00:22:22;;;;;;;21.70;9.70;;;5.60;99.90;;;;;;5157563;28;20455;-55
2023/03/13 00:24:52;;;;;;;15.90;8.83;;;5.50;99.90;;;;;;5170770;28;20497;-52
2023/03/13 00:27:23;;;;;;;15.80;9.13;;;5.50;99.90;;;;;;5167536;28;20192;-54
2023/03/13 00:29:54;;;;;;;14.70;9.43;;;5.60;99.90;;;;;;5172274;28;20311;-56
2023/03/13 00:32:24;;;;;;;25.00;9.93;;;5.60;99.90;;;;;;5171161;28;20719;-55
2023/03/13 00:34:55;;;;;;;17.93;9.60;;;5.60;99.90;;;;;;5167954;28;20191;-53
2023/03/13 00:37:25;;;;;;;17.20;10.07;;;5.60;99.90;;;;;;5174272;28;20180;-53
2023/03/13 00:39:56;;;;;;;29.53;10.00;;;5.60;99.90;;;;;;5154919;28;20199;-53
2023/03/13 00:42:27;;;;;;;24.60;9.40;;;5.60;99.90;;;;;;5167078;28;20226;-53
2023/03/13 00:44:57;;;;;;;19.97;8.90;;;5.60;99.90;;;;;;5171758;28;20231;-54
2023/03/13 00:47:28;;;;;;;15.07;8.63;;;5.70;99.90;;;;;;5155900;28;20271;-53
2023/03/13 00:49:58;;;;;;;20.00;9.40;;;5.70;99.90;;;;;;5163558;28;20718;-52
2023/03/13 00:52:29;;;;;;;13.60;8.10;;;5.70;99.90;;;;;;5147384;28;20215;-52
2023/03/13 00:55:00;;;;;;;20.40;10.13;;;5.80;99.90;;;;;;5146704;28;20692;-53
2023/03/13 00:57:31;;;;;;;29.50;8.73;;;5.70;99.90;;;;;;5153926;28;20178;-51
2023/03/13 01:00:05;;;;;;;30.53;10.03;;;5.80;99.90;;;;;;5170195;28;20555;-53
2023/03/13 01:02:41;;;;;;;25.87;10.33;;;5.80;99.90;;;;;;5165118;28;20484;-53
2023/03/13 01:05:12;;;;;;;20.97;9.57;;;5.80;99.90;;;;;;5164309;28;20502;-53
2023/03/13 01:07:43;;;;;;;32.87;9.60;;;5.80;99.90;;;;;;5175550;28;20760;-53
2023/03/13 01:10:14;;;;;;;22.33;9.30;;;5.80;99.90;;;;;;5169686;28;20471;-53
2023/03/13 01:12:45;;;;;;;35.67;10.00;;;5.80;99.90;;;;;;5165603;28;20459;-53
2023/03/13 01:15:18;;;;;;;34.30;9.20;;;5.90;99.90;;;;;;5163808;28;20290;-51
2023/03/13 01:17:49;;;;;;;23.10;10.20;;;5.90;99.90;;;;;;5159425;28;20665;-53
2023/03/13 01:20:19;;;;;;;16.40;9.00;;;5.80;99.90;;;;;;5168536;28;20467;-53
2023/03/13 01:22:50;;;;;;;20.77;9.23;;;5.90;99.90;;;;;;5170176;28;20286;-53
2023/03/13 01:25:21;;;;;;;21.27;9.90;;;5.90;99.90;;;;;;5173967;28;20195;-53
2023/03/13 01:27:51;;;;;;;18.13;10.00;;;5.90;99.90;;;;;;5162231;28;20268;-54
2023/03/13 01:30:22;;;;;;;16.03;9.10;;;5.90;99.90;;;;;;5162688;28;20552;-52
2023/03/13 01:32:53;;;;;;;12.80;8.50;;;5.90;99.90;;;;;;5166084;28;20204;-52
2023/03/13 01:35:23;;;;;;;13.60;9.70;;;5.90;99.90;;;;;;5173688;28;20181;-54
2023/03/13 01:37:54;;;;;;;24.93;9.07;;;6.00;99.90;;;;;;5175326;28;20208;-54
2023/03/13 01:40:24;;;;;;;23.30;9.67;;;5.90;99.90;;;;;;5162220;28;20192;-54
2023/03/13 01:42:58;;;;;;;12.67;8.53;;;5.90;99.90;;;;;;5173187;28;20695;-53
2023/03/13 01:46:08;;;;;;;14.73;7.80;;;5.90;99.90;;;;;;5172084;28;20860;-53
2023/03/13 01:49:09;;;;;;;20.73;8.77;;;5.90;99.90;;;;;;5161000;28;20457;-53
2023/03/13 01:51:52;;;;;;;17.07;8.30;;;5.90;99.90;;;;;;5175262;28;20484;-53
2023/03/13 01:54:31;;;;;;;26.00;8.50;;;5.90;99.90;;;;;;5164296;28;20446;-54
2023/03/13 01:57:40;;;;;;;34.27;9.10;;;5.90;99.90;;;;;;5161800;28;20450;-54
2023/03/13 02:00:21;;;;;;;20.03;8.70;;;6.00;99.90;;;;;;5175045;28;20447;-53
2023/03/13 02:02:55;;;;;;;14.63;8.13;;;5.90;99.90;;;;;;5166897;28;20459;-53
2023/03/13 02:05:27;;;;;;;18.73;7.43;;;6.00;99.90;;;;;;5165187;28;22135;-53
2023/03/13 02:08:03;;;;;;;19.17;8.70;;;5.90;99.90;;;;;;5179950;28;20418;-54
2023/03/13 02:10:40;;;;;;;18.33;7.73;;;6.00;99.90;;;;;;5163155;28;20471;-53
2023/03/13 02:13:14;;;;;;;26.00;9.23;;;6.00;99.90;;;;;;5160649;28;20967;-52
2023/03/13 02:15:45;;;;;;;19.27;8.10;;;6.00;99.90;;;;;;5172254;28;20863;-54
2023/03/13 02:18:17;;;;;;;19.60;9.13;;;6.10;99.90;;;;;;5166365;28;20796;-53
2023/03/13 02:20:51;;;;;;;20.33;9.30;;;6.20;99.90;;;;;;5161249;28;20482;-54
2023/03/13 02:23:39;;;;;;;25.40;10.40;;;6.20;99.90;;;;;;5171399;28;20499;-53
2023/03/13 02:26:10;;;;;;;18.37;8.47;;;6.20;99.90;;;;;;5165787;28;20800;-54
2023/03/13 02:28:40;;;;;;;15.37;7.93;;;6.10;99.90;;;;;;5173029;28;20449;-53
2023/03/13 02:31:11;;;;;;;17.33;7.30;;;6.10;99.90;;;;;;5162197;28;20671;-51
2023/03/13 02:33:43;;;;;;;10.80;6.50;;;6.10;99.90;;;;;;5168272;28;20183;-53
2023/03/13 02:36:16;;;;;;;23.10;8.07;;;6.20;99.90;;;;;;5167446;28;20205;-53
2023/03/13 02:38:58;;;;;;;15.93;7.13;;;6.20;99.90;;;;;;5168642;28;20451;-53
2023/03/13 02:41:31;;;;;;;15.40;7.60;;;6.20;99.90;;;;;;5161404;28;20487;-51
2023/03/13 02:44:01;;;;;;;22.67;8.00;;;6.30;99.90;;;;;;5166744;28;20432;-54
2023/03/13 02:46:44;;;;;;;11.97;6.40;;;6.40;99.90;;;;;;5176783;28;20493;-54
2023/03/13 02:49:27;;;;;;;20.83;6.47;;;6.40;99.90;;;;;;5163826;28;20611;-52
2023/03/13 02:52:02;;;;;;;16.03;6.17;;;6.50;99.90;;;;;;5172401;28;20460;-52
2023/03/13 02:54:36;;;;;;;9.40;4.40;;;6.50;99.90;;;;;;5175834;28;20439;-53
2023/03/13 02:57:07;;;;;;;15.03;6.50;;;6.70;99.90;;;;;;5161558;28;20460;-53
2023/03/13 02:59:38;;;;;;;15.87;6.17;;;6.60;99.90;;;;;;5159107;28;20492;-53
2023/03/13 03:02:08;;;;;;;18.13;5.70;;;6.70;99.90;;;;;;5160233;28;20205;-53
2023/03/13 03:04:39;;;;;;;13.07;5.90;;;6.70;99.90;;;;;;5163382;28;20262;-53
2023/03/13 03:07:10;;;;;;;10.30;4.37;;;6.80;99.90;;;;;;5170617;28;20246;-52
2023/03/13 03:09:40;;;;;;;15.97;5.20;;;6.90;99.90;;;;;;5170752;28;20586;-53
2023/03/13 03:12:11;;;;;;;15.57;5.57;;;7.00;99.90;;;;;;5164422;28;20236;-53
2023/03/13 03:14:42;;;;;;;11.80;5.93;;;6.90;99.90;;;;;;5177493;28;20271;-54
2023/03/13 03:17:12;;;;;;;8.87;4.07;;;7.20;99.90;;;;;;5163635;28;20216;-54
2023/03/13 03:19:43;;;;;;;12.97;4.63;;;7.10;99.90;;;;;;5171272;28;20176;-53
2023/03/13 03:22:14;;;;;;;7.00;3.67;;;7.10;99.90;;;;;;5165505;28;20207;-52
2023/03/13 03:24:44;;;;;;;16.87;4.83;;;7.30;99.90;;;;;;5167707;28;20176;-54
2023/03/13 03:27:15;;;;;;;14.77;6.00;;;7.40;99.90;;;;;;5153470;28;20186;-53
2023/03/13 03:29:46;;;;;;;19.67;5.00;;;7.30;99.90;;;;;;5168048;28;20261;-52
2023/03/13 03:32:16;;;;;;;11.53;4.80;;;7.30;99.90;;;;;;5178321;28;20238;-53
2023/03/13 03:34:47;;;;;;;17.47;5.93;;;7.30;99.90;;;;;;5171543;28;20802;-52
2023/03/13 03:37:17;;;;;;;10.73;5.10;;;7.30;99.90;;;;;;5177560;28;20180;-52
2023/03/13 03:39:48;;;;;;;12.63;4.80;;;7.20;99.90;;;;;;5164360;28;20181;-52
2023/03/13 03:42:19;;;;;;;14.10;4.57;;;7.10;99.90;;;;;;5163291;28;20213;-54
2023/03/13 03:44:49;;;;;;;13.00;4.63;;;7.10;99.90;;;;;;5168055;28;20189;-55
2023/03/13 03:47:20;;;;;;;15.70;5.03;;;7.10;99.90;;;;;;5181122;28;20271;-53
2023/03/13 03:49:50;;;;;;;11.43;4.00;;;7.00;99.90;;;;;;5161564;28;20233;-55
2023/03/13 03:52:21;;;;;;;16.43;4.93;;;6.90;99.90;;;;;;5169557;28;20250;-55
2023/03/13 03:54:52;;;;;;;15.90;4.70;;;6.90;99.90;;;;;;5166606;28;20184;-53
2023/03/13 03:57:23;;;;;;;10.77;4.63;;;6.90;99.90;;;;;;5168010;28;20188;-53
2023/03/13 03:59:54;;;;;;;10.40;4.77;;;6.90;99.90;;;;;;5168597;28;20216;-54
2023/03/13 04:02:25;;;;;;;21.37;5.57;;;7.00;99.90;;;;;;5160437;28;20492;-55
2023/03/13 04:04:55;;;;;;;17.03;6.50;;;6.90;99.90;;;;;;5163537;28;20830;-54
2023/03/13 04:07:26;;;;;;;15.60;4.57;;;6.90;99.90;;;;;;5178382;28;20203;-54
2023/03/13 04:09:56;;;;;;;25.30;5.00;;;6.90;99.90;;;;;;5164813;28;20673;-53
2023/03/13 04:12:27;;;;;;;9.47;4.70;;;7.00;99.90;;;;;;5154494;28;20203;-54
2023/03/13 04:14:58;;;;;;;18.83;5.17;;;6.90;99.90;;;;;;5165105;28;20181;-54
2023/03/13 04:17:28;;;;;;;7.70;4.13;;;6.90;99.90;;;;;;5162595;28;20201;-52
2023/03/13 04:19:59;;;;;;;11.63;3.97;;;7.10;99.90;;;;;;5172889;28;20738;-54
2023/03/13 04:22:30;;;;;;;10.97;4.60;;;7.00;99.90;;;;;;5156539;28;20213;-55
2023/03/13 04:25:01;;;;;;;11.93;3.70;;;6.90;99.90;;;;;;5168370;28;20497;-54
2023/03/13 04:27:33;;;;;;;13.67;4.37;;;6.90;99.90;;;;;;5161741;28;20295;-54
2023/03/13 04:30:04;;;;;;;9.20;4.23;;;7.00;99.90;;;;;;5168605;28;20218;-53
2023/03/13 04:32:35;;;;;;;10.67;4.33;;;6.90;99.90;;;;;;5177447;28;20459;-55
2023/03/13 04:35:05;;;;;;;15.77;5.07;;;6.90;99.90;;;;;;5168714;28;20438;-54
2023/03/13 04:37:36;;;;;;;13.77;5.20;;;6.90;99.90;;;;;;5163216;28;20200;-54
2023/03/13 04:40:08;;;;;;;18.33;4.20;;;6.90;99.90;;;;;;5162188;28;20298;-54
2023/03/13 04:42:40;;;;;;;23.27;4.10;;;6.90;99.90;;;;;;5162950;28;20707;-54
2023/03/13 04:45:11;;;;;;;18.10;4.67;;;7.10;99.90;;;;;;5168090;28;20511;-53
2023/03/13 04:47:42;;;;;;;15.50;3.73;;;7.20;99.90;;;;;;5164020;28;20448;-54
2023/03/13 04:50:12;;;;;;;12.93;4.37;;;7.10;99.90;;;;;;5171282;28;20455;-55
2023/03/13 04:52:43;;;;;;;16.07;4.57;;;7.10;99.90;;;;;;5161857;28;20205;-55
2023/03/13 04:55:14;;;;;;;22.67;4.23;;;7.20;99.90;;;;;;5165541;28;20187;-56
2023/03/13 04:57:44;;;;;;;11.97;4.00;;;7.20;99.90;;;;;;5146537;28;20193;-54
2023/03/13 05:00:15;;;;;;;25.27;5.00;;;7.30;99.90;;;;;;5161029;28;20264;-55
2023/03/13 05:02:46;;;;;;;14.80;4.03;;;7.30;99.90;;;;;;5163350;28;20211;-54
2023/03/13 05:05:16;;;;;;;15.70;4.73;;;7.30;99.90;;;;;;5164898;28;20177;-55
2023/03/13 05:07:47;;;;;;;18.60;4.83;;;7.30;99.90;;;;;;5168829;28;20610;-55
2023/03/13 05:10:18;;;;;;;14.63;3.70;;;7.10;99.90;;;;;;5174749;28;20239;-54
2023/03/13 05:12:48;;;;;;;22.33;4.30;;;7.20;99.90;;;;;;5161072;28;20212;-56
2023/03/13 05:15:19;;;;;;;18.67;5.20;;;7.10;99.90;;;;;;5155853;28;20248;-55
2023/03/13 05:17:49;;;;;;;24.17;4.77;;;7.00;99.90;;;;;;5160353;28;20194;-55
2023/03/13 05:20:20;;;;;;;15.27;4.70;;;7.10;99.90;;;;;;5155288;28;20181;-55
2023/03/13 05:22:51;;;;;;;15.37;4.30;;;7.10;99.90;;;;;;5161603;28;20236;-54
2023/03/13 05:25:21;;;;;;;19.87;4.97;;;7.10;99.90;;;;;;5164512;28;20203;-55
2023/03/13 05:27:52;;;;;;;18.70;4.90;;;7.00;99.90;;;;;;5156651;28;20275;-55
2023/03/13 05:30:23;;;;;;;19.70;4.53;;;7.00;99.90;;;;;;5165191;28;20212;-54
2023/03/13 05:32:53;;;;;;;12.03;4.63;;;7.10;99.90;;;;;;5159725;28;20208;-55
2023/03/13 05:35:24;;;;;;;19.33;3.97;;;7.10;99.90;;;;;;5161780;28;20645;-55
2023/03/13 05:37:55;;;;;;;13.63;4.97;;;7.10;99.90;;;;;;5165601;28;20180;-55
2023/03/13 05:40:25;;;;;;;23.40;4.80;;;7.00;99.90;;;;;;5160147;28;20248;-55
2023/03/13 05:42:56;;;;;;;19.43;4.63;;;7.10;99.90;;;;;;5171234;28;20282;-54
2023/03/13 05:45:26;;;;;;;20.00;5.10;;;7.10;99.90;;;;;;5160895;28;21293;-54
2023/03/13 05:48:00;;;;;;;17.57;5.00;;;7.00;99.90;;;;;;5171219;28;20180;-54
2023/03/13 05:50:30;;;;;;;23.83;5.40;;;7.00;99.90;;;;;;5172341;28;20209;-54
2023/03/13 05:53:01;;;;;;;25.93;4.70;;;7.00;99.90;;;;;;5173643;28;20973;-55
2023/03/13 05:55:32;;;;;;;15.67;4.40;;;7.10;99.90;;;;;;5173882;28;20248;-55
2023/03/13 05:58:03;;;;;;;11.97;4.70;;;7.30;99.90;;;;;;5166278;28;21957;-55
2023/03/13 06:00:34;;;;;;;19.10;4.00;;;7.20;99.90;;;;;;5163144;28;20920;-55
2023/03/13 06:03:04;;;;;;;17.77;5.70;;;7.30;99.90;;;;;;5156764;28;20569;-56
2023/03/13 06:05:36;;;;;;;24.87;6.00;;;7.20;99.90;;;;;;5184337;28;20447;-54
2023/03/13 06:08:07;;;;;;;27.57;4.70;;;7.40;99.90;;;;;;5161429;28;20201;-56
2023/03/13 06:10:37;;;;;;;25.20;6.00;;;7.30;99.90;;;;;;5170153;28;20476;-54
2023/03/13 06:13:08;;;;;;;24.97;5.00;;;7.20;99.90;;;;;;5168979;28;20271;-52
2023/03/13 06:15:39;;;;;;;17.43;5.60;;;7.20;99.90;;;;;;5174870;28;20177;-53
2023/03/13 06:18:09;;;;;;;27.40;5.17;;;7.30;99.90;;;;;;5158273;28;20634;-54
2023/03/13 06:20:40;;;;;;;22.67;6.43;;;7.20;99.90;;;;;;5165212;28;20208;-55
2023/03/13 06:23:10;;;;;;;22.07;5.97;;;7.20;99.90;;;;;;5165101;28;20216;-55
2023/03/13 06:25:41;;;;;;;27.93;6.43;;;7.20;99.90;;;;;;5164136;28;20188;-54
2023/03/13 06:28:13;;;;;;;29.57;5.57;;;7.20;99.90;;;;;;5166626;28;20596;-56
2023/03/13 06:30:44;;;;;;;20.13;5.80;;;7.20;99.90;;;;;;5165056;28;20272;-55
2023/03/13 06:33:14;;;;;;;24.50;5.30;;;7.20;99.90;;;;;;5164734;28;20539;-55
2023/03/13 06:35:45;;;;;;;35.33;6.37;;;7.30;99.90;;;;;;5164604;28;21052;-53
2023/03/13 06:38:16;;;;;;;22.93;6.10;;;7.30;99.90;;;;;;5166641;28;20638;-54
2023/03/13 06:40:46;;;;;;;24.67;6.57;;;7.20;99.90;;;;;;5165532;28;20259;-56
2023/03/13 06:43:17;;;;;;;26.17;10.33;;;7.20;99.90;;;;;;5166789;28;20197;-56
2023/03/13 06:45:48;;;;;;;36.83;7.70;;;7.40;99.90;;;;;;5166861;28;20189;-53
2023/03/13 06:48:21;;;;;;;19.10;6.00;;;7.40;99.90;;;;;;5155635;28;20454;-55
2023/03/13 06:50:55;;;;;;;24.07;5.83;;;7.50;99.90;;;;;;5158134;28;20459;-55
2023/03/13 06:53:26;;;;;;;22.30;6.80;;;7.50;99.90;;;;;;5159821;28;20456;-56
2023/03/13 06:56:00;;;;;;;28.37;6.70;;;7.40;99.90;;;;;;5163532;28;20444;-54
2023/03/13 06:58:31;;;;;;;26.90;6.83;;;7.50;99.90;;;;;;5162300;28;20188;-55
2023/03/13 07:01:07;;;;;;;29.17;5.93;;;7.40;99.90;;;;;;5160876;28;20447;-55
2023/03/13 07:03:40;;;;;;;26.47;8.20;;;7.60;99.90;;;;;;5163944;28;20544;-50
2023/03/13 07:06:11;;;;;;;32.30;9.97;;;7.50;99.90;;;;;;5161398;28;20490;-51
2023/03/13 07:08:43;;;;;;;39.33;14.03;;;7.60;99.90;;;;;;5164677;28;20444;-51
2023/03/13 07:11:14;;;;;;;20.53;8.50;;;7.50;99.90;;;;;;5163292;28;20473;-51
2023/03/13 07:13:45;;;;;;;28.93;8.23;;;7.60;99.90;;;;;;5167023;28;20447;-50
2023/03/13 07:16:16;;;;;;;33.07;9.20;;;7.60;99.90;;;;;;5161648;28;20423;-50
2023/03/13 07:18:47;;;;;;;22.50;6.03;;;7.60;99.90;;;;;;5162443;28;20586;-51
2023/03/13 07:21:18;;;;;;;32.67;7.30;;;7.60;99.90;;;;;;5146223;28;20486;-51
2023/03/13 07:23:48;;;;;;;43.90;6.33;;;7.60;99.90;;;;;;5163688;28;20199;-51
2023/03/13 07:26:19;;;;;;;30.03;6.00;;;7.70;99.90;;;;;;5161089;28;20649;-52
2023/03/13 07:28:50;;;;;;;18.63;6.37;;;7.80;99.90;;;;;;5159592;28;20312;-52
2023/03/13 07:31:22;;;;;;;22.70;6.23;;;7.90;99.90;;;;;;5158483;28;20568;-57
2023/03/13 07:33:55;;;;;;;30.47;7.60;;;7.90;99.90;;;;;;5164944;28;20188;-57
2023/03/13 07:36:25;;;;;;;32.10;7.30;;;7.90;99.90;;;;;;5161339;28;20845;-57
2023/03/13 07:38:56;;;;;;;43.10;10.80;;;7.80;99.90;;;;;;5154268;28;20546;-53
2023/03/13 07:41:27;;;;;;;33.03;8.50;;;7.70;99.90;;;;;;5156435;28;20216;-55
2023/03/13 07:43:58;;;;;;;33.93;11.83;;;7.90;99.90;;;;;;5159568;28;20200;-58
2023/03/13 07:46:28;;;;;;;47.03;13.03;;;7.90;99.90;;;;;;5158678;28;20189;-56
2023/03/13 07:48:59;;;;;;;42.20;16.50;;;7.90;99.90;;;;;;5155537;28;20452;-54
2023/03/13 07:51:30;;;;;;;24.43;10.10;;;8.10;99.90;;;;;;5158924;28;20732;-56
2023/03/13 07:54:00;;;;;;;29.33;9.10;;;8.10;99.90;;;;;;5162954;28;20666;-55
2023/03/13 07:56:31;;;;;;;36.67;9.80;;;8.00;99.90;;;;;;5153397;28;20217;-56
2023/03/13 07:59:01;;;;;;;25.33;7.03;;;8.00;99.90;;;;;;5159806;28;20215;-54
2023/03/13 08:01:32;;;;;;;32.13;9.33;;;8.10;99.90;;;;;;5156339;28;20225;-55
2023/03/13 08:04:04;;;;;;;25.97;9.07;;;8.10;99.90;;;;;;5165901;28;20629;-55
2023/03/13 08:06:35;;;;;;;31.17;9.43;;;8.10;99.90;;;;;;5159635;28;20189;-57
2023/03/13 08:09:06;;;;;;;40.23;10.70;;;8.10;99.90;;;;;;5169444;28;20447;-55
2023/03/13 08:11:43;;;;;;;31.50;9.17;;;8.00;99.90;;;;;;5167580;28;20498;-56
2023/03/13 08:14:14;;;;;;;29.97;9.30;;;8.00;99.90;;;;;;5162996;28;20196;-54
2023/03/13 08:16:44;;;;;;;37.33;8.50;;;8.10;99.90;;;;;;5161428;28;20916;-56
2023/03/13 08:19:15;;;;;;;26.63;8.13;;;8.10;99.90;;;;;;5161309;28;20599;-56
2023/03/13 08:21:46;;;;;;;24.20;6.90;;;8.00;99.90;;;;;;5158557;28;20198;-55
2023/03/13 08:24:16;;;;;;;28.23;6.53;;;8.10;99.90;;;;;;5162931;28;20247;-55
2023/03/13 08:26:47;;;;;;;23.20;6.80;;;8.30;99.90;;;;;;5149366;28;20178;-55
2023/03/13 08:29:18;;;;;;;27.43;6.93;;;8.30;99.90;;;;;;5148421;28;20189;-54
2023/03/13 08:31:51;;;;;;;22.63;6.40;;;8.20;99.90;;;;;;5156130;28;20208;-55
2023/03/13 08:34:22;;;;;;;19.60;7.53;;;8.20;99.90;;;;;;5142394;28;20174;-56
2023/03/13 08:36:52;;;;;;;24.10;6.27;;;8.30;99.90;;;;;;5158370;28;20807;-55
2023/03/13 08:39:23;;;;;;;20.93;6.10;;;8.30;99.90;;;;;;5159078;28;20657;-55
2023/03/13 08:41:54;;;;;;;23.37;6.70;;;8.30;99.90;;;;;;5159063;28;20234;-57
2023/03/13 08:44:24;;;;;;;25.13;6.70;;;8.20;99.90;;;;;;5160265;28;20191;-54
2023/03/13 08:46:55;;;;;;;26.30;5.60;;;8.30;99.90;;;;;;5160056;28;20258;-55
2023/03/13 08:49:26;;;;;;;15.23;4.77;;;8.40;99.90;;;;;;5141141;28;20672;-56
2023/03/13 08:51:57;;;;;;;34.03;7.20;;;8.40;99.90;;;;;;5156145;28;20488;-57
2023/03/13 08:54:27;;;;;;;33.90;5.93;;;8.40;99.90;;;;;;5158833;28;20192;-56
2023/03/13 08:57:01;;;;;;;36.23;6.33;;;8.40;99.90;;;;;;5155749;28;20629;-56
2023/03/13 08:59:32;;;;;;;21.43;5.50;;;8.30;99.90;;;;;;5161875;28;20603;-57
2023/03/13 09:02:02;;;;;;;33.83;7.03;;;8.40;99.90;;;;;;5155524;28;20541;-56
2023/03/13 09:04:33;;;;;;;16.80;5.10;;;8.40;99.90;;;;;;5161614;28;20181;-57
2023/03/13 09:07:04;;;;;;;24.87;8.20;;;8.40;99.90;;;;;;5150953;28;20208;-54
2023/03/13 09:09:34;;;;;;;26.43;6.87;;;8.40;99.90;;;;;;5155579;28;20212;-55
2023/03/13 09:12:05;;;;;;;15.90;5.43;;;8.40;99.90;;;;;;5161556;28;20256;-56
2023/03/13 09:14:36;;;;;;;20.93;5.60;;;8.50;99.90;;;;;;5160377;28;20657;-56
2023/03/13 09:17:07;;;;;;;20.73;5.87;;;8.60;99.90;;;;;;5159595;28;20448;-56
2023/03/13 09:19:38;;;;;;;29.50;6.27;;;8.60;99.90;;;;;;5159927;28;20185;-54
2023/03/13 09:22:08;;;;;;;26.40;6.23;;;8.60;99.90;;;;;;5163714;28;20471;-56
2023/03/13 09:24:40;;;;;;;19.23;5.80;;;8.60;99.90;;;;;;5167968;28;20272;-56
2023/03/13 09:27:10;;;;;;;18.33;4.80;;;8.70;99.90;;;;;;5166470;28;20177;-56
2023/03/13 09:29:41;;;;;;;20.97;5.60;;;8.80;99.90;;;;;;5161823;28;20470;-57
2023/03/13 09:32:12;;;;;;;20.73;5.70;;;8.80;99.90;;;;;;5163159;28;20205;-56
2023/03/13 09:34:42;;;;;;;11.73;4.90;;;8.70;99.90;;;;;;5162004;28;20607;-55
2023/03/13 09:37:13;;;;;;;27.87;5.70;;;8.80;99.90;;;;;;5164683;28;20182;-56
2023/03/13 09:39:43;;;;;;;17.03;4.30;;;8.80;99.90;;;;;;5162663;28;20180;-54
2023/03/13 09:42:19;;;;;;;13.00;4.17;;;8.80;99.90;;;;;;5173204;23;20290;-49
2023/03/13 09:45:14;;;;;;;20.53;4.47;;;8.70;99.90;;;;;;5167134;28;20600;-49
2023/03/13 09:47:49;;;;;;;17.40;4.63;;;8.70;99.90;;;;;;5157862;28;20467;-49
2023/03/13 09:50:33;;;;;;;11.10;4.17;;;8.80;99.90;;;;;;5161257;28;20834;-50
2023/03/13 09:53:17;;;;;;;14.87;4.50;;;8.80;99.90;;;;;;5152611;28;20828;-50
2023/03/13 09:55:47;;;;;;;23.00;5.60;;;8.80;99.90;;;;;;5158866;28;20438;-49
2023/03/13 09:58:24;;;;;;;24.67;5.93;;;8.90;99.90;;;;;;5163093;28;20529;-49
2023/03/13 10:01:03;;;;;;;18.67;4.83;;;9.00;99.90;;;;;;5162902;28;20192;-49
2023/03/13 10:03:40;;;;;;;20.20;4.60;;;8.90;99.90;;;;;;5157827;28;20436;-48
2023/03/13 10:06:19;;;;;;;10.40;4.77;;;9.00;99.90;;;;;;5164624;28;20455;-47
2023/03/13 10:08:51;;;;;;;7.50;4.43;;;9.00;99.90;;;;;;5156874;28;20964;-50
2023/03/13 10:11:46;;;;;;;13.20;5.13;;;9.00;99.90;;;;;;5162612;28;20467;-50
2023/03/13 10:14:40;;;;;;;8.93;3.83;;;9.10;99.90;;;;;;5171708;28;20446;-49
2023/03/13 10:17:30;;;;;;;11.13;4.10;;;9.10;99.90;;;;;;5154185;28;20432;-49
2023/03/13 10:20:22;;;;;;;10.07;4.17;;;9.20;99.90;;;;;;5150803;28;20457;-51
2023/03/13 10:23:02;;;;;;;19.33;4.43;;;9.20;99.90;;;;;;5157007;28;20891;-50
2023/03/13 10:25:35;;;;;;;18.60;4.70;;;9.30;99.90;;;;;;5171478;28;20436;-50
2023/03/13 10:28:14;;;;;;;14.20;4.40;;;9.30;99.90;;;;;;5156079;28;20494;-49
2023/03/13 10:30:57;;;;;;;12.30;4.10;;;9.50;99.90;;;;;;5161008;28;20474;-50
2023/03/13 10:33:28;;;;;;;10.10;4.53;;;9.50;99.90;;;;;;5163747;28;20455;-49
2023/03/13 10:36:11;;;;;;;16.70;4.13;;;9.70;99.90;;;;;;5163890;28;20439;-49
2023/03/13 10:38:52;;;;;;;12.50;4.50;;;9.80;99.90;;;;;;5163425;28;20444;-48
2023/03/13 10:41:27;;;;;;;9.27;3.80;;;9.90;99.90;;;;;;5157228;28;21831;-48
2023/03/13 10:44:02;;;;;;;12.03;4.03;;;10.00;99.90;;;;;;5161081;28;20446;-48
2023/03/13 10:46:39;;;;;;;14.93;3.50;;;10.00;99.90;;;;;;5161793;28;20482;-50
2023/03/13 10:49:23;;;;;;;17.47;4.60;;;10.10;99.90;;;;;;5154239;28;20463;-49
2023/03/13 10:52:05;;;;;;;7.97;3.67;;;10.30;99.90;;;;;;5155985;28;20465;-49
2023/03/13 10:54:39;;;;;;;8.30;3.70;;;10.60;99.90;;;;;;5163876;28;20444;-49
2023/03/13 10:57:25;;;;;;;16.33;4.63;;;10.60;99.90;;;;;;5159815;28;20435;-49
2023/03/13 10:59:57;;;;;;;12.20;4.00;;;10.70;99.90;;;;;;5167275;28;20439;-49
2023/03/13 11:02:34;;;;;;;8.93;3.63;;;10.80;99.90;;;;;;5162794;28;20866;-49
2023/03/13 11:05:29;;;;;;;6.03;3.77;;;11.00;99.90;;;;;;5163477;28;20448;-49
2023/03/13 11:08:15;;;;;;;9.87;4.00;;;11.00;99.90;;;;;;5158709;28;20452;-49
2023/03/13 11:11:00;;;;;;;11.70;3.57;;;11.20;99.90;;;;;;5157951;28;20467;-50
2023/03/13 11:13:42;;;;;;;6.87;3.10;;;11.20;99.90;;;;;;5162167;28;20448;-49
2023/03/13 11:16:19;;;;;;;6.07;3.27;;;11.40;99.90;;;;;;5160646;28;20933;-49
2023/03/13 11:19:12;;;;;;;5.13;3.00;;;11.40;99.90;;;;;;5157587;28;20439;-49
2023/03/13 11:21:58;;;;;;;7.70;3.37;;;11.60;99.90;;;;;;5158106;28;21273;-49
2023/03/13 11:24:44;;;;;;;8.90;2.47;;;11.80;99.90;;;;;;5164240;28;20436;-48
2023/03/13 11:27:40;;;;;;;9.27;2.90;;;12.00;99.90;;;;;;5153271;28;21007;-50
2023/03/13 11:30:32;;;;;;;4.90;2.97;;;11.80;99.90;;;;;;5152641;28;20470;-49
2023/03/13 11:33:16;;;;;;;9.93;3.50;;;11.90;99.90;;;;;;5160691;28;20464;-49
2023/03/13 11:35:55;;;;;;;3.40;2.00;;;11.90;99.90;;;;;;5157926;28;20458;-48
2023/03/13 11:38:41;;;;;;;6.13;3.40;;;11.80;99.90;;;;;;5158044;28;20546;-50
2023/03/13 11:41:20;;;;;;;14.03;2.90;;;11.90;99.90;;;;;;5157052;28;20444;-50
2023/03/13 11:44:32;;;;;;;3.33;2.50;;;11.90;99.90;;;;;;5167566;28;20858;-50
2023/03/13 11:47:32;;;;;;;2.23;2.03;;;12.00;99.90;;;;;;5163037;28;20982;-54
2023/03/13 11:50:38;;;;;;;6.50;2.60;;;12.10;99.90;;;;;;5158846;28;20471;-50
2023/03/13 11:53:19;;;;;;;6.13;1.67;;;12.30;99.90;;;;;;5161271;28;20472;-48
2023/03/13 11:56:09;;;;;;;3.67;2.00;;;12.30;99.90;;;;;;5160698;28;20444;-49
2023/03/13 11:58:51;;;;;;;4.00;2.10;;;12.20;99.90;;;;;;5153280;28;20440;-49
2023/03/13 12:01:28;;;;;;;3.90;2.50;;;12.30;99.90;;;;;;5153069;28;20475;-49
2023/03/13 12:04:01;;;;;;;10.40;1.97;;;12.40;99.90;;;;;;5165816;28;20442;-48
2023/03/13 12:06:36;;;;;;;4.50;1.80;;;12.60;99.90;;;;;;5146403;28;20438;-49
2023/03/13 12:09:41;;;;;;;4.70;2.10;;;12.60;99.90;;;;;;5151705;28;20447;-49
2023/03/13 12:12:30;;;;;;;3.53;1.80;;;12.70;99.90;;;;;;5161900;28;20463;-50
2023/03/13 12:15:22;;;;;;;2.33;2.23;;;12.90;99.90;;;;;;5163023;28;20542;-49
2023/03/13 12:17:52;;;;;;;3.70;1.90;;;13.40;99.90;;;;;;5157321;28;20439;-48
2023/03/13 12:20:36;;;;;;;3.00;1.70;;;13.60;99.90;;;;;;5155469;28;20695;-49
2023/03/13 12:23:17;;;;;;;1.97;1.80;;;13.90;99.90;;;;;;5161649;28;20213;-50
2023/03/13 12:25:55;;;;;;;5.10;1.50;;;14.00;99.90;;;;;;5155089;28;20455;-49
2023/03/13 12:28:26;;;;;;;5.23;1.60;;;14.30;99.90;;;;;;5160163;28;20441;-49
2023/03/13 12:31:08;;;;;;;1.20;1.20;;;14.30;99.90;;;;;;5161060;28;20975;-49
2023/03/13 12:33:51;;;;;;;2.33;1.50;;;14.40;99.90;;;;;;5162812;28;20192;-50
2023/03/13 12:36:31;;;;;;;1.37;1.03;;;14.40;99.90;;;;;;5162071;28;20420;-48
2023/03/13 12:39:25;;;;;;;1.33;1.23;;;14.50;99.90;;;;;;5154044;28;20511;-48
2023/03/13 12:42:09;;;;;;;2.80;1.70;;;14.70;99.90;;;;;;5163927;28;20538;-49
2023/03/13 12:44:40;;;;;;;1.37;1.37;;;15.00;99.90;;;;;;5160768;28;20884;-48
2023/03/13 12:47:22;;;;;;;6.17;2.17;;;15.10;99.90;;;;;;5160174;28;20526;-47
2023/03/13 12:50:05;;;;;;;2.50;1.77;;;15.00;99.90;;;;;;5144516;28;20221;-49
2023/03/13 12:53:07;;;;;;;6.90;1.43;;;15.00;99.90;;;;;;5140991;28;20456;-50
2023/03/13 12:55:51;;;;;;;2.20;1.03;;;15.10;99.90;;;;;;5148926;28;20531;-49
2023/03/13 12:58:51;;;;;;;1.97;1.83;;;15.50;99.90;;;;;;5152741;28;23535;-49
2023/03/13 13:01:42;;;;;;;3.83;1.23;;;15.70;99.90;;;;;;5157032;28;20924;-50
2023/03/13 13:04:24;;;;;;;2.57;1.73;;;15.80;99.90;;;;;;5158351;28;20479;-48
2023/03/13 13:07:02;;;;;;;1.53;1.20;;;15.90;99.90;;;;;;5154101;28;20523;-47
2023/03/13 13:09:35;;;;;;;6.13;1.30;;;16.00;99.90;;;;;;5157724;28;20450;-47
2023/03/13 13:12:19;;;;;;;1.43;1.33;;;16.30;99.90;;;;;;5162408;28;20500;-48
2023/03/13 13:14:49;;;;;;;1.40;1.30;;;16.50;99.90;;;;;;5160516;28;20539;-48
2023/03/13 13:17:43;;;;;;;1.17;1.17;;;16.60;99.90;;;;;;5161058;28;20535;-48
2023/03/13 13:20:38;;;;;;;2.20;1.30;;;16.70;99.90;;;;;;5160230;28;20197;-49
2023/03/13 13:23:33;;;;;;;2.93;2.67;;;16.60;99.90;;;;;;5158789;28;20468;-47
2023/03/13 13:26:25;;;;;;;1.73;1.63;;;16.60;99.90;;;;;;5156626;28;20954;-47